createdAt,value
2022-10-11T00:00:54.841Z,49.30
2022-10-11T00:03:36.730Z,54.50
2022-10-11T00:06:06.607Z,55.70
2022-10-11T00:08:36.449Z,67.30
2022-10-11T00:11:07.339Z,67.90
2022-10-11T00:13:36.126Z,67.90
2022-10-11T00:16:13.096Z,63.20
2022-10-11T00:18:41.701Z,59.60
2022-10-11T00:21:13.571Z,63.10
2022-10-11T00:23:42.972Z,60.10
2022-10-11T00:26:11.480Z,60.30
2022-10-11T00:28:40.515Z,59.20
2022-10-11T00:31:11.508Z,51.00
2022-10-11T00:33:39.854Z,54.60
2022-10-11T00:36:09.115Z,43.90
2022-10-11T00:38:37.424Z,45.10
2022-10-11T00:41:05.944Z,40.70
2022-10-11T00:43:35.840Z,46.00
2022-10-11T00:46:06.565Z,42.20
2022-10-11T00:48:49.090Z,40.20
2022-10-11T00:51:26.117Z,45.70
2022-10-11T00:53:54.663Z,70.60
2022-10-11T00:56:31.278Z,71.60
2022-10-11T00:59:02.654Z,84.80
2022-10-11T01:01:31.129Z,89.50
2022-10-11T01:03:59.168Z,95.80
2022-10-11T01:06:27.242Z,94.90
2022-10-11T01:08:57.259Z,108.80
2022-10-11T01:11:29.458Z,98.40
2022-10-11T01:14:19.602Z,94.90
2022-10-11T01:17:10.384Z,106.60
2022-10-11T01:19:48.305Z,113.80
2022-10-11T01:22:38.070Z,109.20
2022-10-11T01:25:23.804Z,112.10
2022-10-11T01:28:19.056Z,100.60
2022-10-11T01:30:47.453Z,120.30
2022-10-11T01:33:27.861Z,107.60
2022-10-11T01:36:29.042Z,121.20
2022-10-11T01:39:04.172Z,97.00
2022-10-11T01:44:06.775Z,89.20
2022-10-11T01:46:36.286Z,100.80
2022-10-11T01:49:05.157Z,107.80
2022-10-11T01:51:44.059Z,93.50
2022-10-11T01:58:02.293Z,103.00
2022-10-11T02:00:50.729Z,102.40
2022-10-11T02:03:24.693Z,74.20
2022-10-11T02:06:02.217Z,66.00
2022-10-11T02:08:55.059Z,74.00
2022-10-11T02:11:27.504Z,68.70
2022-10-11T02:14:25.620Z,78.30
2022-10-11T02:17:10.070Z,71.10
2022-10-11T02:19:43.700Z,79.30
2022-10-11T02:22:21.265Z,71.70
2022-10-11T02:24:54.058Z,61.10
2022-10-11T02:27:27.097Z,70.60
2022-10-11T02:29:58.536Z,67.80
2022-10-11T02:32:28.161Z,69.40
2022-10-11T02:35:00.316Z,76.70
2022-10-11T02:37:32.350Z,80.40
2022-10-11T02:40:16.466Z,73.50
2022-10-11T02:42:59.707Z,76.30
2022-10-11T02:45:41.707Z,71.20
2022-10-11T02:48:11.575Z,59.70
2022-10-11T02:50:40.414Z,64.30
2022-10-11T02:53:09.576Z,62.50
2022-10-11T02:55:37.745Z,67.60
2022-10-11T02:58:06.229Z,78.80
2022-10-11T03:00:34.816Z,68.00
2022-10-11T03:03:02.878Z,61.60
2022-10-11T03:05:33.335Z,64.30
2022-10-11T03:08:01.333Z,58.30
2022-10-11T03:10:29.909Z,60.80
2022-10-11T03:12:57.843Z,59.80
2022-10-11T03:15:26.061Z,62.50
2022-10-11T03:17:54.026Z,67.90
2022-10-11T03:20:22.389Z,64.20
2022-10-11T03:22:50.820Z,59.90
2022-10-11T03:25:18.919Z,58.70
2022-10-11T03:27:47.442Z,65.30
2022-10-11T03:30:18.311Z,63.70
2022-10-11T03:32:48.898Z,59.30
2022-10-11T03:35:17.985Z,59.00
2022-10-11T03:37:45.886Z,55.30
2022-10-11T03:40:14.159Z,60.70
2022-10-11T03:42:43.269Z,59.00
2022-10-11T03:45:11.448Z,53.50
2022-10-11T03:47:40.539Z,54.70
2022-10-11T03:50:10.982Z,55.40
2022-10-11T03:52:41.888Z,51.50
2022-10-11T03:55:09.949Z,49.70
2022-10-11T03:57:38.414Z,55.50
2022-10-11T04:00:07.410Z,58.00
2022-10-11T04:02:39.079Z,61.80
2022-10-11T04:05:08.298Z,51.30
2022-10-11T04:07:36.148Z,51.20
2022-10-11T04:10:04.669Z,58.00
2022-10-11T04:12:32.936Z,52.80
2022-10-11T04:15:00.806Z,58.50
2022-10-11T04:17:30.161Z,61.70
2022-10-11T04:19:58.636Z,54.80
2022-10-11T04:22:26.546Z,56.80
2022-10-11T04:24:54.393Z,52.20
2022-10-11T04:27:22.730Z,52.40
2022-10-11T04:29:51.150Z,49.90
2022-10-11T04:32:20.244Z,49.90
2022-10-11T04:34:48.245Z,50.20
2022-10-11T04:37:16.441Z,54.30
2022-10-11T04:39:44.581Z,55.90
2022-10-11T04:42:12.742Z,56.30
2022-10-11T04:44:40.917Z,55.60
2022-10-11T04:47:09.432Z,60.00
2022-10-11T04:49:38.422Z,52.00
2022-10-11T04:52:08.226Z,60.80
2022-10-11T04:54:36.959Z,57.10
2022-10-11T04:57:05.283Z,59.30
2022-10-11T04:59:33.787Z,60.70
2022-10-11T05:02:02.157Z,64.20
2022-10-11T05:04:32.340Z,56.60
2022-10-11T05:07:00.501Z,60.60
2022-10-11T05:09:31.035Z,57.00
2022-10-11T05:11:59.650Z,59.80
2022-10-11T05:14:27.784Z,63.00
2022-10-11T05:16:57.257Z,61.00
2022-10-11T05:19:25.420Z,61.70
2022-10-11T05:22:00.846Z,64.20
2022-10-11T05:24:28.872Z,72.80
2022-10-11T05:27:00.967Z,92.90
2022-10-11T05:29:31.502Z,92.20
2022-10-11T05:32:01.522Z,87.50
2022-10-11T05:34:29.793Z,111.10
2022-10-11T05:37:01.020Z,122.90
2022-10-11T05:39:33.122Z,133.50
2022-10-11T05:42:01.482Z,137.00
2022-10-11T05:44:29.483Z,132.10
2022-10-11T05:46:57.469Z,148.10
2022-10-11T05:49:29.279Z,161.20
2022-10-11T05:51:58.793Z,182.30
2022-10-11T05:54:31.017Z,169.90
2022-10-11T05:57:01.089Z,135.70
2022-10-11T05:59:29.269Z,135.60
2022-10-11T06:01:57.540Z,142.20
2022-10-11T06:04:25.765Z,135.50
2022-10-11T06:06:53.932Z,132.00
2022-10-11T06:09:22.325Z,132.20
2022-10-11T06:11:51.326Z,137.20
2022-10-11T06:14:22.151Z,134.40
2022-10-11T06:16:51.733Z,119.10
2022-10-11T06:19:19.812Z,115.00
2022-10-11T06:21:48.517Z,100.40
2022-10-11T06:24:17.205Z,68.00
2022-10-11T06:26:45.883Z,50.50
2022-10-11T06:29:20.509Z,64.20
2022-10-11T06:31:49.351Z,44.50
2022-10-11T06:34:17.531Z,49.00
2022-10-11T06:36:45.816Z,45.80
2022-10-11T06:39:13.793Z,47.30
2022-10-11T06:41:41.928Z,35.30
2022-10-11T06:44:14.302Z,33.70
2022-10-11T06:46:43.169Z,53.30
2022-10-11T06:49:15.527Z,64.90
2022-10-11T06:51:45.917Z,45.80
2022-10-11T06:54:14.477Z,33.00
2022-10-11T06:56:42.693Z,41.00
2022-10-11T06:59:10.899Z,54.10
2022-10-11T07:01:39.413Z,44.50
2022-10-11T07:04:09.779Z,38.10
2022-10-11T07:06:41.785Z,55.50
2022-10-11T07:09:10.046Z,39.20
2022-10-11T07:11:38.729Z,37.80
2022-10-11T07:14:08.123Z,36.00
2022-10-11T07:16:37.025Z,40.20
2022-10-11T07:19:09.208Z,45.30
2022-10-11T07:21:37.848Z,36.20
2022-10-11T07:24:06.392Z,35.80
2022-10-11T07:26:39.315Z,31.20
2022-10-11T07:29:09.172Z,33.70
2022-10-11T07:31:40.006Z,34.00
2022-10-11T07:34:09.859Z,40.80
2022-10-11T07:36:41.553Z,43.70
2022-10-11T07:39:09.878Z,39.30
2022-10-11T07:41:44.593Z,32.30
2022-10-11T07:44:18.406Z,39.50
2022-10-11T07:46:46.489Z,39.00
2022-10-11T07:49:15.804Z,38.60
2022-10-11T07:51:44.095Z,37.70
2022-10-11T07:54:12.999Z,43.10
2022-10-11T07:56:42.135Z,34.20
2022-10-11T07:59:21.068Z,42.00
2022-10-11T08:01:55.115Z,41.30
2022-10-11T08:04:25.205Z,43.10
2022-10-11T08:06:54.730Z,50.90
2022-10-11T08:09:29.578Z,40.60
2022-10-11T08:11:58.745Z,42.00
2022-10-11T08:14:27.479Z,32.70
2022-10-11T08:16:56.360Z,45.00
2022-10-11T08:19:24.919Z,38.30
2022-10-11T08:21:55.691Z,32.40
2022-10-11T08:24:25.341Z,39.90
2022-10-11T08:26:57.788Z,32.50
2022-10-11T08:29:29.129Z,40.50
2022-10-11T08:31:57.378Z,42.10
2022-10-11T08:34:28.624Z,29.80
2022-10-11T08:36:56.787Z,34.50
2022-10-11T08:39:25.162Z,36.20
2022-10-11T08:42:07.047Z,30.00
2022-10-11T08:45:09.920Z,32.10
2022-10-11T08:47:45.910Z,39.10
2022-10-11T08:50:22.179Z,25.00
2022-10-11T08:52:58.354Z,28.70
2022-10-11T08:55:45.155Z,27.00
2022-10-11T08:58:16.496Z,28.00
2022-10-11T09:00:50.895Z,25.20
2022-10-11T09:03:44.738Z,25.90
2022-10-11T09:06:30.415Z,26.50
2022-10-11T09:09:13.601Z,27.90
2022-10-11T09:12:02.619Z,28.20
2022-10-11T09:14:47.023Z,29.40
2022-10-11T09:17:31.688Z,34.70
2022-10-11T09:20:29.394Z,27.10
2022-10-11T09:23:09.431Z,25.80
2022-10-11T09:26:24.118Z,32.00
2022-10-11T09:29:22.665Z,32.50
2022-10-11T09:31:56.617Z,25.20
2022-10-11T09:34:33.715Z,26.30
2022-10-11T09:37:34.221Z,28.70
2022-10-11T09:40:05.152Z,29.40
2022-10-11T09:42:35.517Z,32.40
2022-10-11T09:45:16.718Z,29.20
2022-10-11T09:47:59.941Z,27.00
2022-10-11T09:50:39.521Z,24.60
2022-10-11T09:53:09.041Z,30.30
2022-10-11T09:55:51.089Z,32.10
2022-10-11T09:58:40.119Z,27.90
2022-10-11T10:01:25.102Z,33.90
2022-10-11T10:04:09.932Z,27.70
2022-10-11T10:06:41.167Z,26.60
2022-10-11T10:09:27.451Z,28.10
2022-10-11T10:11:56.949Z,27.40
2022-10-11T10:14:31.617Z,31.30
2022-10-11T10:17:15.786Z,28.60
2022-10-11T10:20:00.481Z,32.00
2022-10-11T10:22:39.232Z,27.70
2022-10-11T10:25:42.330Z,30.30
2022-10-11T10:28:25.280Z,30.10
2022-10-11T10:30:59.025Z,26.00
2022-10-11T10:33:34.448Z,28.60
2022-10-11T10:38:37.570Z,30.10
2022-10-11T10:41:15.384Z,38.70
2022-10-11T10:43:57.557Z,28.30
2022-10-11T10:46:51.309Z,23.10
2022-10-11T10:49:54.196Z,21.80
2022-10-11T10:55:23.086Z,23.30
2022-10-11T10:58:16.318Z,17.40
2022-10-11T11:00:49.451Z,18.70
2022-10-11T11:03:20.554Z,20.10
2022-10-11T11:06:09.694Z,17.40
2022-10-11T11:09:04.310Z,23.20
2022-10-11T11:11:59.578Z,21.30
2022-10-11T11:14:48.329Z,21.60
2022-10-11T11:17:48.387Z,15.40
2022-10-11T11:20:55.216Z,16.30
2022-10-11T11:23:41.002Z,22.30
2022-10-11T11:26:24.612Z,16.10
2022-10-11T11:29:22.207Z,13.70
2022-10-11T11:31:53.547Z,21.10
2022-10-11T11:34:28.858Z,16.00
2022-10-11T11:37:06.751Z,22.90
2022-10-11T11:39:56.674Z,24.00
2022-10-11T11:42:44.556Z,19.60
2022-10-11T11:45:26.397Z,17.70
2022-10-11T11:48:21.759Z,19.40
2022-10-11T11:51:10.419Z,27.40
2022-10-11T11:54:24.617Z,21.50
2022-10-11T11:57:21.477Z,17.90
2022-10-11T12:00:02.421Z,20.20
2022-10-11T12:03:04.074Z,20.50
2022-10-11T12:05:36.427Z,18.20
2022-10-11T12:08:23.966Z,17.80
2022-10-11T12:11:07.722Z,18.40
2022-10-11T12:13:45.381Z,17.10
2022-10-11T12:16:17.854Z,13.80
2022-10-11T12:18:54.069Z,15.20
2022-10-11T12:21:40.482Z,23.70
2022-10-11T12:24:53.121Z,23.00
2022-10-11T12:27:38.688Z,17.90
2022-10-11T12:30:44.086Z,13.00
2022-10-11T12:33:23.146Z,21.90
2022-10-11T12:35:54.382Z,13.30
2022-10-11T12:38:41.382Z,18.60
2022-10-11T12:41:10.827Z,12.70
2022-10-11T12:46:29.862Z,23.20
2022-10-11T12:49:24.973Z,25.80
2022-10-11T12:52:00.886Z,28.10
2022-10-11T12:55:07.166Z,25.90
2022-10-11T12:57:51.478Z,32.10
2022-10-11T13:00:24.944Z,24.10
2022-10-11T13:03:07.169Z,15.80
2022-10-11T13:05:51.019Z,20.90
2022-10-11T13:08:36.590Z,16.00
2022-10-11T13:11:19.003Z,17.90
2022-10-11T13:14:14.047Z,16.50
2022-10-11T13:17:17.394Z,19.50
2022-10-11T13:19:58.593Z,106.10
2022-10-11T13:22:27.686Z,23.50
2022-10-11T13:24:58.205Z,15.90
2022-10-11T13:27:29.791Z,17.50
2022-10-11T13:30:20.188Z,36.80
2022-10-11T13:33:20.974Z,16.60
2022-10-11T13:35:55.517Z,16.00
2022-10-11T13:38:41.987Z,13.70
2022-10-11T13:41:10.878Z,15.70
2022-10-11T13:43:45.224Z,13.30
2022-10-11T13:46:27.121Z,13.40
2022-10-11T13:49:04.651Z,17.20
2022-10-11T13:51:37.738Z,18.60
2022-10-11T13:54:13.837Z,14.40
2022-10-11T13:56:51.095Z,16.90
2022-10-11T13:59:25.967Z,18.30
2022-10-11T14:02:04.689Z,20.20
2022-10-11T14:04:42.098Z,18.30
2022-10-11T14:07:37.674Z,18.50
2022-10-11T14:12:40.946Z,17.40
2022-10-11T14:15:29.019Z,14.60
2022-10-11T14:18:03.615Z,21.30
2022-10-11T14:20:39.365Z,18.70
2022-10-11T14:23:08.400Z,18.50
2022-10-11T14:25:37.777Z,22.50
2022-10-11T14:28:19.972Z,16.80
2022-10-11T14:30:51.745Z,15.20
2022-10-11T14:33:22.643Z,21.10
2022-10-11T14:35:57.705Z,13.10
2022-10-11T14:38:26.605Z,15.40
2022-10-11T14:40:55.296Z,15.20
2022-10-11T14:43:24.335Z,17.00
2022-10-11T14:45:58.037Z,14.80
2022-10-11T14:48:53.662Z,14.00
2022-10-11T14:51:29.262Z,15.50
2022-10-11T14:53:58.582Z,15.50
2022-10-11T14:56:27.765Z,19.00
2022-10-11T14:58:57.477Z,23.20
2022-10-11T15:01:25.597Z,21.70
2022-10-11T15:03:54.856Z,13.60
2022-10-11T15:06:27.115Z,15.20
2022-10-11T15:08:55.705Z,18.20
2022-10-11T15:11:24.935Z,16.60
2022-10-11T15:13:53.084Z,19.10
2022-10-11T15:16:21.989Z,16.50
2022-10-11T15:18:51.889Z,24.60
2022-10-11T15:21:21.993Z,22.70
2022-10-11T15:23:51.758Z,25.50
2022-10-11T15:26:26.941Z,17.60
2022-10-11T15:28:57.408Z,19.00
2022-10-11T15:31:26.835Z,16.40
2022-10-11T15:34:01.772Z,18.60
2022-10-11T15:36:29.965Z,20.20
2022-10-11T15:38:59.020Z,30.60
2022-10-11T15:41:29.399Z,17.20
2022-10-11T15:43:58.504Z,41.20
2022-10-11T15:46:26.923Z,23.50
2022-10-11T15:48:55.435Z,49.10
2022-10-11T15:51:23.728Z,30.70
2022-10-11T15:53:52.208Z,68.40
2022-10-11T15:56:20.506Z,56.70
2022-10-11T15:58:48.692Z,27.60
2022-10-11T16:01:19.991Z,24.30
2022-10-11T16:03:49.706Z,22.40
2022-10-11T16:06:21.430Z,22.10
2022-10-11T16:08:50.590Z,23.00
2022-10-11T16:11:21.256Z,20.80
2022-10-11T16:13:52.911Z,21.60
2022-10-11T16:16:21.020Z,23.60
2022-10-11T16:18:52.588Z,25.00
2022-10-11T16:21:21.609Z,21.30
2022-10-11T16:23:52.263Z,26.10
2022-10-11T16:26:20.378Z,24.60
2022-10-11T16:28:53.444Z,24.40
2022-10-11T16:31:21.947Z,26.80
2022-10-11T16:33:53.160Z,31.90
2022-10-11T16:36:32.056Z,30.50
2022-10-11T16:39:02.988Z,26.60
2022-10-11T16:41:31.110Z,28.80
2022-10-11T16:43:59.499Z,26.70
2022-10-11T16:46:28.652Z,32.30
2022-10-11T16:48:56.652Z,31.30
2022-10-11T16:51:31.847Z,26.20
2022-10-11T16:54:01.738Z,26.90
2022-10-11T16:56:36.106Z,27.70
2022-10-11T16:59:08.460Z,27.30
2022-10-11T17:01:37.206Z,27.20
2022-10-11T17:04:07.042Z,28.60
2022-10-11T17:06:38.138Z,33.80
2022-10-11T17:09:07.491Z,24.50
2022-10-11T17:11:36.625Z,24.70
2022-10-11T17:14:08.154Z,23.10
2022-10-11T17:16:36.537Z,26.90
2022-10-11T17:19:05.678Z,21.60
2022-10-11T17:21:34.601Z,19.20
2022-10-11T17:24:04.488Z,21.20
2022-10-11T17:26:34.109Z,24.20
2022-10-11T17:29:05.828Z,31.10
2022-10-11T17:31:36.078Z,23.90
2022-10-11T17:34:04.431Z,27.20
2022-10-11T17:36:36.365Z,26.40
2022-10-11T17:39:11.783Z,30.50
2022-10-11T17:41:41.970Z,28.50
2022-10-11T17:44:11.919Z,29.40
2022-10-11T17:46:45.565Z,29.90
2022-10-11T17:49:14.566Z,26.30
2022-10-11T17:51:44.280Z,27.00
2022-10-11T17:54:13.268Z,22.20
2022-10-11T17:56:42.428Z,27.90
2022-10-11T17:59:21.935Z,28.50
2022-10-11T18:01:54.096Z,29.60
2022-10-11T18:04:26.880Z,28.70
2022-10-11T18:06:55.752Z,31.00
2022-10-11T18:09:25.386Z,27.60
2022-10-11T18:11:53.918Z,34.20
2022-10-11T18:14:22.502Z,37.20
2022-10-11T18:16:52.830Z,31.70
2022-10-11T18:19:22.378Z,29.20
2022-10-11T18:21:50.750Z,30.80
2022-10-11T18:24:18.840Z,39.30
2022-10-11T18:26:46.990Z,31.30
2022-10-11T18:29:15.210Z,31.60
2022-10-11T18:31:43.640Z,32.90
2022-10-11T18:34:15.593Z,31.70
2022-10-11T18:36:44.257Z,36.30
2022-10-11T18:39:14.944Z,31.40
2022-10-11T18:41:44.693Z,28.90
2022-10-11T18:44:15.672Z,29.90
2022-10-11T18:46:44.838Z,41.40
2022-10-11T18:49:14.786Z,33.90
2022-10-11T18:51:45.600Z,33.50
2022-10-11T18:54:16.952Z,38.20
2022-10-11T18:56:50.995Z,45.90
2022-10-11T18:59:20.442Z,46.70
2022-10-11T19:01:52.342Z,57.20
2022-10-11T19:04:21.563Z,45.20
2022-10-11T19:06:52.714Z,42.00
2022-10-11T19:09:23.290Z,45.80
2022-10-11T19:11:56.082Z,40.80
2022-10-11T19:14:28.920Z,36.30
2022-10-11T19:16:59.212Z,44.30
2022-10-11T19:19:30.294Z,42.90
2022-10-11T19:22:02.186Z,41.20
2022-10-11T19:24:32.058Z,44.80
2022-10-11T19:27:02.755Z,39.50
2022-10-11T19:29:32.549Z,38.20
2022-10-11T19:32:05.555Z,38.80
2022-10-11T19:37:05.096Z,37.90
2022-10-11T19:39:34.410Z,40.10
2022-10-11T19:42:05.024Z,43.40
2022-10-11T19:44:37.270Z,41.10
2022-10-11T19:47:07.917Z,38.30
2022-10-11T19:49:38.996Z,36.20
2022-10-11T19:52:07.126Z,44.20
2022-10-11T19:54:37.249Z,45.30
2022-10-11T19:57:06.320Z,47.80
2022-10-11T19:59:37.580Z,40.30
2022-10-11T20:02:05.579Z,39.70
2022-10-11T20:04:52.848Z,44.70
2022-10-11T20:07:21.918Z,36.10
2022-10-11T20:09:51.915Z,45.60
2022-10-11T20:12:20.163Z,46.70
2022-10-11T20:14:49.936Z,46.30
2022-10-11T20:17:19.052Z,42.90
2022-10-11T20:19:46.971Z,40.90
2022-10-11T20:22:14.977Z,39.40
2022-10-11T20:24:43.648Z,40.60
2022-10-11T20:27:12.624Z,37.90
2022-10-11T20:29:40.596Z,39.10
2022-10-11T20:32:08.573Z,43.50
2022-10-11T20:34:39.501Z,46.10
2022-10-11T20:37:07.486Z,39.80
2022-10-11T20:39:36.986Z,38.80
2022-10-11T20:42:04.959Z,38.20
2022-10-11T20:44:34.295Z,37.00
2022-10-11T20:47:04.147Z,37.20
2022-10-11T20:49:32.828Z,38.80
2022-10-11T20:52:00.722Z,36.10
2022-10-11T20:54:30.044Z,38.20
2022-10-11T20:56:59.221Z,38.30
2022-10-11T20:59:31.230Z,40.60
2022-10-11T21:01:59.656Z,39.50
2022-10-11T21:04:27.473Z,36.90
2022-10-11T21:06:58.202Z,39.00
2022-10-11T21:09:26.209Z,40.80
2022-10-11T21:11:54.254Z,41.30
2022-10-11T21:14:22.970Z,42.00
2022-10-11T21:16:52.259Z,39.10
2022-10-11T21:19:20.338Z,41.20
2022-10-11T21:21:53.333Z,40.20
2022-10-11T21:24:22.110Z,43.50
2022-10-11T21:26:51.062Z,38.00
2022-10-11T21:29:19.318Z,43.60
2022-10-11T21:31:47.387Z,42.60
2022-10-11T21:34:16.866Z,43.10
2022-10-11T21:36:46.073Z,48.30
2022-10-11T21:39:14.098Z,40.10
2022-10-11T21:41:42.417Z,43.20
2022-10-11T21:44:10.545Z,37.40
2022-10-11T21:49:26.973Z,43.20
2022-10-11T21:51:55.412Z,43.20
2022-10-11T21:54:23.291Z,37.90
2022-10-11T21:56:51.326Z,43.80
2022-10-11T21:59:19.215Z,43.20
2022-10-11T22:01:47.264Z,44.20
2022-10-11T22:04:15.288Z,40.90
2022-10-11T22:06:43.206Z,45.60
2022-10-11T22:09:11.212Z,40.00
2022-10-11T22:11:39.927Z,39.50
2022-10-11T22:14:08.116Z,38.20
2022-10-11T22:16:36.415Z,40.60
2022-10-11T22:19:07.902Z,37.30
2022-10-11T22:21:36.024Z,36.30
2022-10-11T22:24:04.101Z,38.90
2022-10-11T22:26:34.852Z,40.70
2022-10-11T22:29:04.364Z,31.80
2022-10-11T22:31:32.392Z,39.60
2022-10-11T22:34:00.684Z,40.50
2022-10-11T22:36:30.797Z,34.60
2022-10-11T22:38:59.736Z,37.50
2022-10-11T22:41:27.832Z,43.00
2022-10-11T22:43:57.375Z,35.10
2022-10-11T22:46:25.461Z,34.50
2022-10-11T22:48:54.225Z,37.90
2022-10-11T22:51:22.279Z,38.60
2022-10-11T22:53:50.346Z,37.20
2022-10-11T22:56:19.481Z,40.10
2022-10-11T22:58:47.841Z,32.00
2022-10-11T23:01:16.614Z,32.70
2022-10-11T23:03:49.633Z,32.40
2022-10-11T23:06:18.087Z,34.30
2022-10-11T23:08:46.232Z,32.50
2022-10-11T23:11:14.138Z,32.20
2022-10-11T23:13:43.772Z,30.70
2022-10-11T23:16:13.037Z,29.60
2022-10-11T23:18:41.301Z,36.50
2022-10-11T23:21:20.136Z,31.30
2022-10-11T23:23:50.437Z,32.60
2022-10-11T23:26:20.887Z,32.40
2022-10-11T23:28:53.231Z,30.00
2022-10-11T23:31:22.037Z,29.60
2022-10-11T23:33:50.484Z,25.90
2022-10-11T23:36:24.621Z,28.20
2022-10-11T23:38:54.821Z,29.60
2022-10-11T23:41:24.748Z,28.10
2022-10-11T23:43:53.223Z,31.10
2022-10-11T23:46:22.017Z,29.60
2022-10-11T23:48:49.926Z,30.50
2022-10-11T23:51:19.335Z,27.50
2022-10-11T23:53:47.446Z,29.10
2022-10-11T23:56:15.389Z,32.20
2022-10-11T23:58:43.378Z,25.40
